createdAt,value
2019-04-20T00:01:31.724Z,45.38
2019-04-20T00:03:59.323Z,45.92
2019-04-20T00:06:31.667Z,45.58
2019-04-20T00:09:10.335Z,45.94
2019-04-20T00:11:49.391Z,46.35
2019-04-20T00:14:15.402Z,45.86
2019-04-20T00:16:42.026Z,45.85
2019-04-20T00:19:17.327Z,46.62
2019-04-20T00:21:56.429Z,47.13
2019-04-20T00:24:33.635Z,47.08
2019-04-20T00:27:22.136Z,47.07
2019-04-20T00:29:52.381Z,47.77
2019-04-20T00:32:18.869Z,47.42
2019-04-20T00:34:43.636Z,47.46
2019-04-20T00:37:12.941Z,47.20
2019-04-20T00:39:44.761Z,47.43
2019-04-20T00:42:17.885Z,47.47
2019-04-20T00:44:57.633Z,48.21
2019-04-20T00:47:34.210Z,48.34
2019-04-20T00:50:06.568Z,48.79
2019-04-20T00:52:45.226Z,48.60
2019-04-20T00:55:00.123Z,48.23
2019-04-20T00:57:41.784Z,48.68
2019-04-20T01:00:23.109Z,49.31
2019-04-20T01:02:49.524Z,49.26
2019-04-20T01:05:37.898Z,49.77
2019-04-20T01:08:09.435Z,49.97
2019-04-20T01:10:47.266Z,49.93
2019-04-20T01:13:19.815Z,50.39
2019-04-20T01:15:55.167Z,49.85
2019-04-20T01:18:20.057Z,50.29
2019-04-20T01:20:51.460Z,49.95
2019-04-20T01:23:29.128Z,50.04
2019-04-20T01:26:01.831Z,50.16
2019-04-20T01:28:47.402Z,50.67
2019-04-20T01:31:17.757Z,50.29
2019-04-20T01:33:49.196Z,50.78
2019-04-20T01:36:35.079Z,51.74
2019-04-20T01:38:57.839Z,51.03
2019-04-20T01:41:18.220Z,50.95
2019-04-20T01:43:50.191Z,51.55
2019-04-20T01:46:28.025Z,51.29
2019-04-20T01:49:00.201Z,51.86
2019-04-20T01:51:37.331Z,52.33
2019-04-20T01:54:26.092Z,52.05
2019-04-20T01:56:58.058Z,51.51
2019-04-20T01:59:44.055Z,51.78
2019-04-20T02:02:24.463Z,51.13
2019-04-20T02:05:11.357Z,51.13
2019-04-20T02:07:40.000Z,50.66
2019-04-20T02:10:09.780Z,50.99
2019-04-20T02:12:42.279Z,51.01
2019-04-20T02:15:20.052Z,51.38
2019-04-20T02:17:59.359Z,53.12
2019-04-20T02:20:37.597Z,52.75
2019-04-20T02:23:06.562Z,53.47
2019-04-20T02:25:24.925Z,53.15
2019-04-20T02:28:14.783Z,53.07
2019-04-20T02:31:10.484Z,52.79
2019-04-20T02:33:47.422Z,53.70
2019-04-20T02:36:25.070Z,53.89
2019-04-20T02:41:57.531Z,54.34
2019-04-20T02:46:55.686Z,53.96
2019-04-20T02:49:33.126Z,54.02
2019-04-20T02:51:55.906Z,53.97
2019-04-20T02:57:05.326Z,53.76
2019-04-20T02:59:54.057Z,55.04
2019-04-20T03:01:55.231Z,55.31
2019-04-20T03:04:20.247Z,54.92
2019-04-20T03:07:01.037Z,54.79
2019-04-20T03:09:36.211Z,54.32
2019-04-20T03:12:10.846Z,54.13
2019-04-20T03:14:35.218Z,54.61
2019-04-20T03:17:15.538Z,54.45
2019-04-20T03:19:40.902Z,55.59
2019-04-20T03:22:24.645Z,55.60
2019-04-20T03:24:54.017Z,54.95
2019-04-20T03:27:46.208Z,54.89
2019-04-20T03:33:44.584Z,54.96
2019-04-20T03:36:07.936Z,55.20
2019-04-20T03:38:26.288Z,55.48
2019-04-20T03:40:50.693Z,55.58
2019-04-20T03:43:12.287Z,55.27
2019-04-20T03:45:51.756Z,55.36
2019-04-20T03:48:35.902Z,55.82
2019-04-20T03:51:07.283Z,54.66
2019-04-20T03:53:43.566Z,55.45
2019-04-20T03:56:34.392Z,55.90
2019-04-20T03:59:20.182Z,56.51
2019-04-20T04:02:25.173Z,56.45
2019-04-20T04:05:03.332Z,56.21
2019-04-20T04:07:19.543Z,56.40
2019-04-20T04:10:02.470Z,56.89
2019-04-20T04:13:09.602Z,56.64
2019-04-20T04:15:48.765Z,57.01
2019-04-20T04:18:23.009Z,56.55
2019-04-20T04:20:54.071Z,56.31
2019-04-20T04:23:36.671Z,56.52
2019-04-20T04:26:08.513Z,57.24
2019-04-20T04:28:43.302Z,57.40
2019-04-20T04:31:22.953Z,57.30
2019-04-20T04:33:59.354Z,56.84
2019-04-20T04:36:20.842Z,57.20
2019-04-20T04:39:05.449Z,57.44
2019-04-20T04:41:31.079Z,58.17
2019-04-20T04:44:04.510Z,57.85
2019-04-20T04:48:49.221Z,57.48
2019-04-20T04:56:21.451Z,57.93
2019-04-20T05:02:03.375Z,59.54
2019-04-20T05:04:58.510Z,58.06
2019-04-20T05:07:23.021Z,58.34
2019-04-20T05:12:21.492Z,58.90
2019-04-20T05:22:39.758Z,60.20
2019-04-20T05:30:33.606Z,59.57
2019-04-20T05:33:09.162Z,59.58
2019-04-20T05:36:00.912Z,59.19
2019-04-20T05:38:39.779Z,59.40
2019-04-20T05:41:04.626Z,59.09
2019-04-20T05:43:38.605Z,58.67
2019-04-20T05:46:18.407Z,59.32
2019-04-20T05:48:53.246Z,59.22
2019-04-20T05:51:26.907Z,59.15
2019-04-20T05:54:01.140Z,58.20
2019-04-20T05:56:33.074Z,58.71
2019-04-20T05:58:59.907Z,58.77
2019-04-20T06:01:42.480Z,58.84
2019-04-20T06:04:01.650Z,58.80
2019-04-20T06:06:40.411Z,58.18
2019-04-20T06:09:21.038Z,57.98
2019-04-20T06:11:56.280Z,57.77
2019-04-20T06:14:19.391Z,57.18
2019-04-20T06:17:10.805Z,57.17
2019-04-20T06:19:39.240Z,57.77
2019-04-20T06:53:41.205Z,47.72
2019-04-20T06:56:36.791Z,47.04
2019-04-20T07:02:03.947Z,46.35
2019-04-20T07:07:10.166Z,44.66
2019-04-20T07:14:32.891Z,42.72
2019-04-20T07:22:46.357Z,41.69
2019-04-20T07:30:24.111Z,41.52
2019-04-20T07:35:30.450Z,41.35
2019-04-20T07:40:28.801Z,40.02
2019-04-20T07:43:14.645Z,40.14
2019-04-20T07:46:11.743Z,39.98
2019-04-20T07:48:36.872Z,38.74
2019-04-20T07:51:04.827Z,38.46
2019-04-20T07:53:42.174Z,39.12
2019-04-20T07:56:25.377Z,40.20
2019-04-20T07:58:41.388Z,39.44
2019-04-20T08:01:43.129Z,39.10
2019-04-20T08:22:02.498Z,35.62
2019-04-20T08:28:39.172Z,35.59
2019-04-20T08:31:32.277Z,35.17
2019-04-20T08:36:57.108Z,35.74
2019-04-20T08:42:24.779Z,34.40
2019-04-20T08:45:08.369Z,34.66
2019-04-20T08:47:45.863Z,34.22
2019-04-20T08:53:17.360Z,33.81
2019-04-20T09:00:19.144Z,32.37
2019-04-20T09:05:30.276Z,31.88
2019-04-20T09:18:17.848Z,32.18
2019-04-20T09:23:36.373Z,30.01
2019-04-20T09:26:14.943Z,30.29
2019-04-20T09:32:33.254Z,30.28
2019-04-20T09:42:47.026Z,30.56
2019-04-20T09:45:31.139Z,31.25
2019-04-20T09:47:57.115Z,31.38
2019-04-20T09:53:17.328Z,28.98
2019-04-20T09:58:12.580Z,28.85
2019-04-20T10:03:16.722Z,30.23
2019-04-20T10:08:21.873Z,29.07
2019-04-20T10:13:25.075Z,29.54
2019-04-20T10:21:09.653Z,29.85
2019-04-20T10:23:48.235Z,28.55
2019-04-20T10:26:22.759Z,29.30
2019-04-20T10:28:57.377Z,29.26
2019-04-20T10:31:48.296Z,29.71
2019-04-20T10:34:15.697Z,30.43
2019-04-20T10:37:09.376Z,28.26
2019-04-20T10:42:14.380Z,28.24
2019-04-20T10:47:15.230Z,29.19
2019-04-20T10:52:17.857Z,29.23
2019-04-20T10:54:50.260Z,28.04
2019-04-20T10:57:21.674Z,28.84
2019-04-20T10:59:59.388Z,27.41
2019-04-20T11:02:35.133Z,26.17
2019-04-20T11:05:08.559Z,26.31
2019-04-20T11:11:01.300Z,27.13
2019-04-20T11:13:46.119Z,26.09
2019-04-20T11:16:24.703Z,25.99
2019-04-20T11:19:01.043Z,25.58
2019-04-20T11:21:34.354Z,25.42
2019-04-20T11:24:08.170Z,25.44
2019-04-20T11:26:41.445Z,25.08
2019-04-20T11:29:16.122Z,23.37
2019-04-20T11:31:51.536Z,23.89
2019-04-20T11:34:28.615Z,23.37
2019-04-20T11:36:52.986Z,23.62
2019-04-20T11:39:25.029Z,23.91
2019-04-20T11:41:56.194Z,23.61
2019-04-20T11:46:58.723Z,23.82
2019-04-20T11:49:31.064Z,23.90
2019-04-20T11:52:03.613Z,23.88
2019-04-20T11:54:34.993Z,23.32
2019-04-20T11:57:09.018Z,23.02
2019-04-20T11:59:39.338Z,22.90
2019-04-20T12:02:47.886Z,21.26
2019-04-20T12:05:28.136Z,21.50
2019-04-20T12:08:03.008Z,22.31
2019-04-20T12:13:14.454Z,22.51
2019-04-20T12:20:58.857Z,20.93
2019-04-20T12:28:43.373Z,21.89
2019-04-20T12:34:11.013Z,21.71
2019-04-20T12:39:31.407Z,22.18
2019-04-20T12:44:32.112Z,22.40
2019-04-20T12:49:37.862Z,22.30
2019-04-20T12:52:10.359Z,22.18
2019-04-20T12:54:44.527Z,23.40
2019-04-20T12:59:47.830Z,21.64
2019-04-20T13:02:19.672Z,22.40
2019-04-20T13:04:55.400Z,21.68
2019-04-20T13:09:54.837Z,22.14
2019-04-20T13:12:32.233Z,21.91
2019-04-20T13:15:26.649Z,21.42
2019-04-20T13:17:58.936Z,22.71
2019-04-20T13:20:30.324Z,21.09
2019-04-20T13:23:03.666Z,21.91
2019-04-20T13:25:35.012Z,23.19
2019-04-20T13:28:07.358Z,20.97
2019-04-20T13:30:39.769Z,20.78
2019-04-20T13:33:12.125Z,22.86
2019-04-20T13:35:44.195Z,21.40
2019-04-20T13:38:16.224Z,21.50
2019-04-20T13:43:17.605Z,21.66
2019-04-20T13:48:21.306Z,21.03
2019-04-20T13:53:23.398Z,21.34
2019-04-20T13:55:56.033Z,22.61
2019-04-20T13:58:45.712Z,21.62
2019-04-20T14:01:34.796Z,21.47
2019-04-20T14:04:05.352Z,21.72
2019-04-20T14:06:57.656Z,21.67
2019-04-20T14:09:30.654Z,22.00
2019-04-20T14:14:33.105Z,21.66
2019-04-20T14:19:34.827Z,21.88
2019-04-20T14:22:11.292Z,22.00
2019-04-20T14:27:12.991Z,22.54
2019-04-20T14:29:46.298Z,22.27
2019-04-20T14:32:18.816Z,22.24
2019-04-20T14:34:51.198Z,22.14
2019-04-20T14:37:24.800Z,22.82
2019-04-20T14:39:59.041Z,22.72
2019-04-20T14:42:40.380Z,22.65
2019-04-20T14:45:04.785Z,22.88
2019-04-20T14:47:36.176Z,23.76
2019-04-20T14:50:07.633Z,23.58
2019-04-20T14:52:39.695Z,22.90
2019-04-20T14:57:41.480Z,23.00
2019-04-20T15:00:37.958Z,23.26
2019-04-20T15:03:10.126Z,23.52
2019-04-20T15:10:40.583Z,23.37
2019-04-20T15:13:14.891Z,23.38
2019-04-20T15:18:15.555Z,23.04
2019-04-20T15:23:15.732Z,23.43
2019-04-20T15:28:18.657Z,23.70
2019-04-20T15:33:28.256Z,23.32
2019-04-20T15:36:04.236Z,23.54
2019-04-20T15:38:35.589Z,23.72
2019-04-20T15:41:08.762Z,23.67
2019-04-20T15:43:39.647Z,23.54
2019-04-20T15:48:40.240Z,23.15
2019-04-20T15:51:14.020Z,22.89
2019-04-20T15:53:47.429Z,23.16
2019-04-20T15:58:52.428Z,23.31
2019-04-20T16:01:28.178Z,24.25
2019-04-20T16:06:31.582Z,25.46
2019-04-20T16:11:35.170Z,25.80
2019-04-20T16:14:07.267Z,26.45
2019-04-20T16:16:38.464Z,26.56
2019-04-20T16:19:25.233Z,27.15
2019-04-20T16:21:43.678Z,26.99
2019-04-20T16:24:18.975Z,27.32
2019-04-20T16:27:13.737Z,27.07
2019-04-20T16:29:45.077Z,27.58
2019-04-20T16:32:16.501Z,27.42
2019-04-20T16:34:48.597Z,27.60
2019-04-20T16:37:20.240Z,27.69
2019-04-20T16:42:18.540Z,27.45
2019-04-20T16:44:49.724Z,27.76
2019-04-20T16:47:22.000Z,27.94
2019-04-20T16:49:53.325Z,28.09
2019-04-20T16:52:25.136Z,28.55
2019-04-20T16:54:57.626Z,28.20
2019-04-20T16:57:29.856Z,28.34
2019-04-20T17:00:03.103Z,28.54
2019-04-20T17:02:34.546Z,28.45
2019-04-20T17:05:07.276Z,28.62
2019-04-20T17:07:42.881Z,28.35
2019-04-20T17:10:16.015Z,28.53
2019-04-20T17:12:48.048Z,29.25
2019-04-20T17:15:21.467Z,29.09
2019-04-20T17:17:53.819Z,29.35
2019-04-20T17:20:28.982Z,28.99
2019-04-20T17:23:05.569Z,29.26
2019-04-20T17:25:35.163Z,29.30
2019-04-20T17:28:35.142Z,29.25
2019-04-20T17:31:19.958Z,29.44
2019-04-20T17:34:04.685Z,29.44
2019-04-20T17:36:30.931Z,29.29
2019-04-20T17:39:06.754Z,29.39
2019-04-20T17:41:59.283Z,29.47
2019-04-20T17:44:26.534Z,29.37
2019-04-20T17:46:52.136Z,29.23
2019-04-20T17:49:28.119Z,29.65
2019-04-20T17:52:12.240Z,29.73
2019-04-20T17:54:27.874Z,29.80
2019-04-20T17:57:00.272Z,30.01
2019-04-20T17:59:34.483Z,29.86
2019-04-20T18:03:00.636Z,30.08
2019-04-20T18:06:08.309Z,30.34
2019-04-20T18:08:39.482Z,30.51
2019-04-20T18:10:58.574Z,30.53
2019-04-20T18:13:27.615Z,30.29
2019-04-20T18:16:22.435Z,30.40
2019-04-20T18:19:07.739Z,30.50
2019-04-20T18:21:40.138Z,30.76
2019-04-20T18:24:15.786Z,30.85
2019-04-20T18:26:57.655Z,30.93
2019-04-20T18:29:37.272Z,30.85
2019-04-20T18:32:07.730Z,31.02
2019-04-20T18:34:57.249Z,31.11
2019-04-20T18:37:25.710Z,30.87
2019-04-20T18:40:03.925Z,31.00
2019-04-20T18:42:36.780Z,31.22
2019-04-20T18:45:21.656Z,31.22
2019-04-20T18:47:56.332Z,31.21
2019-04-20T18:50:19.480Z,31.36
2019-04-20T18:52:43.639Z,31.81
2019-04-20T18:55:23.500Z,31.59
2019-04-20T18:57:49.038Z,31.72
2019-04-20T19:00:26.165Z,31.75
2019-04-20T19:02:57.763Z,31.99
2019-04-20T19:05:27.883Z,32.07
2019-04-20T19:08:13.283Z,32.04
2019-04-20T19:11:00.041Z,32.35
2019-04-20T19:13:53.352Z,32.33
2019-04-20T19:16:59.741Z,32.27
2019-04-20T19:19:33.378Z,32.99
2019-04-20T19:21:56.254Z,32.60
2019-04-20T19:24:29.707Z,32.97
2019-04-20T19:27:06.639Z,33.17
2019-04-20T19:29:48.820Z,33.09
2019-04-20T19:32:24.967Z,33.18
2019-04-20T19:34:54.917Z,33.08
2019-04-20T19:37:24.255Z,33.21
2019-04-20T19:40:02.867Z,33.36
2019-04-20T19:42:34.678Z,33.46
2019-04-20T19:45:10.149Z,33.42
2019-04-20T19:47:42.952Z,33.52
2019-04-20T19:50:31.300Z,33.51
2019-04-20T19:52:57.820Z,33.69
2019-04-20T19:55:25.898Z,33.62
2019-04-20T19:57:56.615Z,33.71
2019-04-20T20:00:14.690Z,33.71
2019-04-20T20:02:46.076Z,33.55
2019-04-20T20:05:19.490Z,33.42
2019-04-20T20:07:56.509Z,33.86
2019-04-20T20:10:30.308Z,33.46
2019-04-20T20:13:00.371Z,33.33
2019-04-20T20:15:34.049Z,33.34
2019-04-20T20:18:23.134Z,33.51
2019-04-20T20:20:59.570Z,33.40
2019-04-20T20:23:27.948Z,33.51
2019-04-20T20:26:05.357Z,33.30
2019-04-20T20:28:57.799Z,33.47
2019-04-20T20:31:28.250Z,33.71
2019-04-20T20:34:10.912Z,33.62
2019-04-20T20:36:53.928Z,33.59
2019-04-20T20:39:24.138Z,33.54
2019-04-20T20:42:06.395Z,33.76
2019-04-20T20:44:37.806Z,33.67
2019-04-20T20:47:34.143Z,33.60
2019-04-20T20:50:21.987Z,33.82
2019-04-20T20:52:47.018Z,33.75
2019-04-20T20:55:19.478Z,33.81
2019-04-20T20:57:56.367Z,33.91
2019-04-20T21:00:38.825Z,33.95
2019-04-20T21:03:02.755Z,34.11
2019-04-20T21:05:45.356Z,34.01
2019-04-20T21:08:19.689Z,33.95
2019-04-20T21:11:15.208Z,33.99
2019-04-20T21:13:45.145Z,34.06
2019-04-20T21:16:19.716Z,34.40
2019-04-20T21:18:59.847Z,34.17
2019-04-20T21:21:36.066Z,34.12
2019-04-20T21:24:03.888Z,34.50
2019-04-20T21:26:35.747Z,34.45
2019-04-20T21:29:03.767Z,34.20
2019-04-20T21:31:36.491Z,34.19
2019-04-20T21:34:13.185Z,34.58
2019-04-20T21:36:41.093Z,34.85
2019-04-20T21:39:20.324Z,34.47
2019-04-20T21:41:54.848Z,34.82
2019-04-20T21:44:25.211Z,35.04
2019-04-20T21:46:54.954Z,34.99
2019-04-20T21:49:39.731Z,35.32
2019-04-20T21:52:03.520Z,35.63
2019-04-20T21:54:34.186Z,35.91
2019-04-20T21:57:09.525Z,35.69
2019-04-20T21:59:44.665Z,35.64
2019-04-20T22:02:20.797Z,35.94
2019-04-20T22:04:45.285Z,35.99
2019-04-20T22:07:16.523Z,36.17
2019-04-20T22:09:52.776Z,36.33
2019-04-20T22:12:20.435Z,36.63
2019-04-20T22:14:58.788Z,36.50
2019-04-20T22:17:30.965Z,36.52
2019-04-20T22:20:12.129Z,37.01
2019-04-20T22:22:50.928Z,36.94
2019-04-20T22:25:28.293Z,36.88
2019-04-20T22:27:40.452Z,36.81
2019-04-20T22:30:12.443Z,36.83
2019-04-20T22:32:46.975Z,36.94
2019-04-20T22:35:18.812Z,37.08
2019-04-20T22:38:01.123Z,37.33
2019-04-20T22:40:32.090Z,37.25
2019-04-20T22:43:02.029Z,37.61
2019-04-20T22:45:34.235Z,37.57
2019-04-20T22:48:09.037Z,37.53
2019-04-20T22:50:50.948Z,37.56
2019-04-20T22:53:22.685Z,37.93
2019-04-20T22:56:11.063Z,38.03
2019-04-20T22:58:33.580Z,37.88
2019-04-20T23:00:57.865Z,38.07
2019-04-20T23:03:25.160Z,38.42
2019-04-20T23:05:56.540Z,38.60
2019-04-20T23:08:28.753Z,38.42
2019-04-20T23:11:00.543Z,38.34
2019-04-20T23:13:36.914Z,38.63
2019-04-20T23:16:07.487Z,38.40
2019-04-20T23:18:40.296Z,38.55
2019-04-20T23:21:15.414Z,39.02
2019-04-20T23:23:43.926Z,39.92
2019-04-20T23:26:24.286Z,40.48
2019-04-20T23:28:52.528Z,40.86
2019-04-20T23:31:25.205Z,40.55
2019-04-20T23:33:56.011Z,40.05
2019-04-20T23:36:36.567Z,40.37
2019-04-20T23:39:02.936Z,40.52
2019-04-20T23:41:33.435Z,41.20
2019-04-20T23:44:23.119Z,40.90
2019-04-20T23:47:21.866Z,40.74
2019-04-20T23:50:12.084Z,41.25
2019-04-20T23:52:49.346Z,41.65
2019-04-20T23:55:04.948Z,41.88
2019-04-20T23:57:33.673Z,41.78
